Latest Weather Observations for Cape Leeuwin

IDW60801

Issued at 3:03 pm WST Sunday 31 July 2016 (issued every 30 minutes, with the page automatically refreshed every 10 minutes)

About weather observations | Map of weather stations | Latest weather observations for WA | Other Formats
Station Details ID: 009518 Name: CAPE LEEUWIN Lat: -34.37 Lon: 115.14 Height: 13.0 m
Data from the previous 72 hours. | See also: Recent months at Cape Leeuwin
Date/Time
WST
Temp
°C
App
Temp
°C
Dew
Point
°C
Rel
Hum
%
Delta-T
°C
Wind Press
QNH
hPa
Press
MSL
hPa
Rain since
9am
mm
Dir  Spd
km/h
Gust
km/h
Spd
kts
Gust
kts
31/03:00pm 11.4 2.0 5.3 66 2.8 SW 44 69 24 37 1022.6 1022.6 0.4
31/02:56pm 11.1 -0.3 4.9 65 2.8 SW 54 72 29 39 1022.6 1022.6 0.4
31/02:50pm 11.8 1.7 5.8 66 2.8 SW 48 72 26 39 1022.1 1022.1 0.4
31/02:41pm 12.5 2.7 3.5 54 4.0 SW 44 63 24 34 1022.0 1022.0 0.4
31/02:30pm 13.7 4.5 3.4 50 4.6 SW 41 54 22 29 1021.9 1021.9 0.4
31/02:00pm 13.1 3.5 3.5 52 4.3 SW 43 56 23 30 1021.4 1021.4 0.4
31/01:30pm 12.1 2.9 5.6 64 3.0 WSW 43 63 23 34 1020.8 1020.8 0.4
31/01:00pm 12.8 2.9 4.7 58 3.7 SW 46 65 25 35 1020.3 1020.3 0.0
31/12:59pm 12.8 3.2 4.2 56 3.9 SW 44 65 24 35 1020.4 1020.4 0.0
31/12:30pm 12.8 0.9 2.2 48 4.6 SW 54 69 29 37 1020.4 1020.4 0.0
31/12:00pm 12.6 1.0 3.9 55 3.9 SW 54 72 29 39 1020.1 1020.1 0.0
31/11:30am 11.6 0.5 6.3 70 2.5 SW 54 78 29 42 1019.9 1019.9 0.0
31/11:10am 12.9 1.4 4.6 57 3.8 SW 54 72 29 39 1019.6 1019.6 0.0
31/11:00am 12.8 1.5 5.2 60 3.5 WSW 54 65 29 35 1019.4 1019.4 0.0
31/10:30am 11.3 -1.8 6.6 73 2.2 WSW 65 83 35 45 1018.7 1018.7 0.0
31/10:16am 11.0 -3.3 7.2 77 1.8 WSW 72 98 39 53 1018.8 1018.8 0.0
31/10:12am 11.3 -2.2 6.6 73 2.2 SW 67 96 36 52 1018.2 1018.2 0.0
31/10:10am 12.3 -0.5 4.6 59 3.5 SW 61 85 33 46 1018.3 1018.3 0.0
31/10:00am 12.6 -0.1 5.0 60 3.5 WSW 61 74 33 40 1018.2 1018.2 0.0
31/09:45am 12.0 -1.2 4.5 60 3.4 WSW 63 82 34 44 1017.7 1017.7 0.0
31/09:30am 11.7 0.2 7.3 74 2.1 SW 57 70 31 38 1017.7 1017.7 0.0
31/09:00am 11.4 -1.5 5.8 68 2.6 SW 63 89 34 48 1016.7 1016.7 7.4
31/08:47am 11.9 -0.3 5.4 64 3.0 WSW 59 95 32 51 1016.5 1016.5 6.6
31/08:30am 13.0 -0.5 2.8 50 4.5 WSW 63 80 34 43 1015.6 1015.6 6.6
31/08:03am 12.8 -0.4 4.2 56 3.9 WSW 63 82 34 44 1015.1 1015.1 6.6
31/08:00am 12.7 -1.1 3.5 53 4.1 WSW 65 80 35 43 1015.0 1015.0 6.6
31/07:30am 12.6 -2.0 3.1 52 4.2 WSW 69 91 37 49 1014.3 1014.3 6.6
31/07:09am 12.7 -0.8 5.1 60 3.5 WSW 65 83 35 45 1013.6 1013.6 6.6
31/07:00am 12.3 -2.1 5.2 62 3.3 WSW 70 83 38 45 1013.3 1013.3 6.6
31/06:50am 12.3 -1.0 5.9 65 3.0 WSW 65 85 35 46 1013.0 1013.0 6.6
31/06:30am 11.6 -2.2 7.2 74 2.1 WSW 69 85 37 46 1012.6 1012.6 6.6
31/06:00am 11.8 -3.4 6.5 70 2.5 WSW 76 96 41 52 1011.9 1011.9 6.4
31/05:30am 11.8 -4.0 7.5 75 2.1 WSW 80 100 43 54 1011.4 1011.4 6.4
31/05:20am 12.0 -1.7 8.1 77 1.9 WSW 70 117 38 63 1010.9 1010.9 6.4
31/05:19am 12.8 -0.8 7.7 71 2.5 WSW 69 117 37 63 1010.7 1010.7 6.4
31/05:00am 13.3 0.7 8.9 74 2.2 WSW 65 82 35 44 1010.7 1010.7 6.2
31/04:37am 13.9 1.5 8.1 68 2.9 W 63 82 34 44 1010.1 1010.1 6.2
31/04:30am 13.4 0.6 7.9 69 2.7 W 65 82 35 44 1009.9 1009.9 6.2
31/04:04am 14.0 0.0 6.8 62 3.5 W 70 91 38 49 1009.6 1009.6 5.6
31/04:00am 14.2 0.6 6.3 59 3.8 W 67 83 36 45 1009.5 1009.5 5.6
31/03:51am 14.3 1.8 7.6 64 3.3 WSW 63 82 34 44 1009.7 1009.7 5.6
31/03:30am 14.1 0.7 8.5 69 2.8 W 69 85 37 46 1009.5 1009.5 5.6
31/03:07am 14.1 -0.6 7.2 63 3.4 W 74 93 40 50 1009.0 1009.0 5.6
31/03:00am 14.2 -0.7 8.2 67 3.0 W 76 91 41 49 1009.0 1009.0 5.6
31/02:30am 14.0 0.5 9.1 72 2.5 W 70 102 38 55 1008.7 1008.7 5.6
31/02:20am 14.1 0.3 9.2 72 2.5 W 72 111 39 60 1008.3 1008.3 5.4
31/02:19am 14.9 1.3 8.6 66 3.2 W 70 91 38 49 1008.4 1008.4 5.4
31/02:00am 14.7 2.8 10.1 74 2.4 W 63 74 34 40 1008.7 1008.7 5.4
31/01:39am 14.5 1.5 10.1 75 2.3 W 69 87 37 47 1008.7 1008.7 5.4
31/01:30am 14.7 1.7 10.3 75 2.3 W 69 83 37 45 1008.5 1008.5 5.4
31/01:12am 13.8 0.6 11.4 85 1.3 W 72 91 39 49 1008.7 1008.7 5.2
31/01:00am 14.9 0.8 9.5 70 2.8 WNW 74 89 40 48 1008.1 1008.1 4.8
31/12:37am 14.5 1.6 10.7 78 2.0 W 69 91 37 49 1008.1 1008.1 4.8
31/12:30am 14.4 2.2 11.8 84 1.4 W 67 82 36 44 1008.3 1008.3 4.8
31/12:11am 15.3 3.5 11.8 79 1.9 W 65 83 35 45 1008.4 1008.4 4.0
31/12:00am 16.0 3.5 10.5 70 2.9 WNW 67 83 36 45 1008.1 1008.1 4.0
 
Date/Time
WST
Temp
°C
App
Temp
°C
Dew
Point
°C
Rel
Hum
%
Delta-T
°C
Wind Press
QNH
hPa
Press
MSL
hPa
Rain since
9am
mm
Dir  Spd
km/h
Gust
km/h
Spd
kts
Gust
kts
30/11:36pm 16.1 3.8 11.5 74 2.5 W 67 85 36 46 1008.1 1008.1 4.0
30/11:30pm 15.7 2.8 10.6 71 2.7 W 69 85 37 46 1008.1 1008.1 4.0
30/11:26pm 15.8 3.4 10.9 72 2.6 WNW 67 85 36 46 1008.2 1008.2 4.0
30/11:00pm 15.2 2.7 11.9 81 1.8 W 69 85 37 46 1008.2 1008.2 4.0
30/10:32pm 14.0 0.1 11.6 85 1.3 WNW 76 95 41 51 1008.5 1008.5 3.6
30/10:30pm 13.9 -0.8 11.5 85 1.3 WNW 80 95 43 51 1008.5 1008.5 3.6
30/10:22pm 14.6 1.8 12.8 89 1.0 WNW 72 93 39 50 1008.2 1008.2 2.8
30/10:00pm 15.2 3.7 11.5 78 2.0 WNW 63 76 34 41 1008.4 1008.4 2.0
30/09:31pm 14.5 0.8 12.3 87 1.2 WNW 76 95 41 51 1008.5 1008.5 1.4
30/09:30pm 14.7 0.6 12.3 85 1.3 WNW 78 95 42 51 1008.4 1008.4 1.4
30/09:09pm 16.0 4.3 12.2 78 2.1 WNW 65 83 35 45 1008.6 1008.6 1.4
30/09:00pm 15.4 3.3 11.9 79 1.9 NW 67 78 36 42 1008.7 1008.7 1.4
30/08:30pm 15.6 3.1 10.7 72 2.6 WNW 67 85 36 46 1008.7 1008.7 0.8
30/08:04pm 16.4 4.1 11.2 71 2.8 WNW 67 85 36 46 1008.6 1008.6 0.2
30/08:00pm 16.4 3.1 9.9 65 3.4 WNW 70 85 38 46 1008.6 1008.6 0.2
30/07:30pm 16.0 3.1 10.7 71 2.8 WNW 69 80 37 43 1008.9 1008.9 0.2
30/07:00pm 15.5 2.8 12.0 79 1.9 WNW 70 93 38 50 1008.9 1008.9 0.2
30/06:57pm 16.3 3.8 10.7 69 3.0 WNW 67 93 36 50 1008.6 1008.6 0.2
30/06:30pm 16.6 3.8 9.5 63 3.7 WNW 67 83 36 45 1008.8 1008.8 0.2
30/06:00pm 16.6 3.1 9.1 61 3.9 WNW 70 89 38 48 1008.8 1008.8 0.2
30/05:31pm 16.5 3.1 8.5 59 4.1 WNW 69 87 37 47 1008.9 1008.9 0.2
30/05:30pm 16.5 3.2 8.9 61 3.9 WNW 69 82 37 44 1009.0 1009.0 0.2
30/05:00pm 16.4 2.8 8.6 60 4.0 WNW 70 83 38 45 1009.0 1009.0 0.2
30/04:30pm 16.6 3.0 8.6 59 4.1 WNW 70 87 38 47 1009.2 1009.2 0.2
30/04:00pm 16.5 2.7 7.8 56 4.4 NW 70 85 38 46 1009.2 1009.2 0.2
30/03:42pm 16.3 2.0 7.5 56 4.4 WNW 72 91 39 49 1009.2 1009.2 0.2
30/03:30pm 16.3 3.1 9.6 64 3.5 WNW 69 83 37 45 1009.3 1009.3 0.2
30/03:27pm 16.3 3.8 9.1 62 3.7 WNW 65 83 35 45 1009.4 1009.4 0.2
30/03:00pm 16.6 4.9 9.5 63 3.7 NW 61 74 33 40 1009.6 1009.6 0.2
30/02:30pm 16.7 2.9 8.0 56 4.4 NW 70 82 38 44 1009.7 1009.7 0.2
30/02:00pm 16.0 5.4 11.8 76 2.3 WNW 59 70 32 38 1010.1 1010.1 0.2
30/01:30pm 15.2 5.3 12.5 84 1.5 WNW 56 76 30 41 1010.3 1010.3 0.0
30/01:20pm 16.1 5.5 11.9 76 2.3 WNW 59 78 32 42 1010.4 1010.4 0.0
30/01:00pm 16.3 4.7 9.8 65 3.4 NW 61 74 33 40 1010.5 1010.5 0.0
30/12:48pm 16.7 4.9 9.0 60 4.0 NW 61 80 33 43 1010.7 1010.7 0.0
30/12:30pm 16.5 6.0 8.9 61 3.9 NW 54 70 29 38 1011.1 1011.1 0.0
30/12:00pm 16.2 5.1 8.8 61 3.8 WNW 57 70 31 38 1011.6 1011.6 0.0
30/11:30am 15.8 5.2 9.9 68 3.1 WNW 56 69 30 37 1012.0 1012.0 0.0
30/11:00am 16.5 4.9 8.2 58 4.2 WNW 59 69 32 37 1012.1 1012.1 0.0
30/10:30am 16.0 3.9 9.4 65 3.4 WNW 63 72 34 39 1012.4 1012.4 0.0
30/10:00am 16.6 5.8 9.3 62 3.8 NW 56 69 30 37 1012.4 1012.4 0.0
30/09:30am 16.2 5.2 9.0 62 3.7 WNW 57 70 31 38 1012.6 1012.6 0.0
30/09:00am 16.1 5.1 8.4 60 3.9 WNW 56 67 30 36 1012.7 1012.7 3.2
30/08:30am 15.7 5.5 10.0 69 3.0 WNW 54 65 29 35 1012.7 1012.7 3.2
30/08:00am 15.7 4.7 7.0 56 4.3 WNW 54 65 29 35 1012.3 1012.3 3.2
30/07:30am 15.7 6.5 7.9 59 3.9 WNW 46 63 25 34 1012.2 1012.2 3.2
30/07:00am 15.3 5.5 8.8 65 3.3 WNW 50 57 27 31 1012.3 1012.3 3.2
30/06:30am 15.2 4.6 8.5 64 3.4 WNW 54 65 29 35 1012.1 1012.1 3.2
30/06:00am 15.1 5.1 9.5 69 2.9 W 52 61 28 33 1011.9 1011.9 3.2
30/05:45am 14.5 5.1 10.3 76 2.2 W 50 69 27 37 1011.8 1011.8 3.2
30/05:30am 15.0 5.7 10.6 75 2.3 W 50 61 27 33 1011.9 1011.9 2.2
30/05:00am 15.5 5.3 8.4 62 3.6 W 52 61 28 33 1011.7 1011.7 2.2
30/04:30am 15.2 5.2 9.2 67 3.1 WNW 52 61 28 33 1011.7 1011.7 2.2
30/04:00am 13.7 3.2 11.0 84 1.4 WNW 57 72 31 39 1012.0 1012.0 2.2
30/03:53am 14.3 4.5 11.5 83 1.5 WNW 54 72 29 39 1011.7 1011.7 2.2
30/03:30am 15.7 5.1 8.4 62 3.7 W 54 61 29 33 1011.6 1011.6 2.0
30/03:00am 15.9 4.9 8.4 61 3.8 W 56 69 30 37 1011.6 1011.6 2.0
30/02:30am 15.5 4.2 7.9 60 3.8 WNW 57 72 31 39 1011.5 1011.5 2.0
30/02:23am 15.3 5.3 7.7 60 3.8 W 50 72 27 39 1011.5 1011.5 2.0
30/02:00am 15.5 5.0 7.2 57 4.1 W 52 63 28 34 1011.6 1011.6 2.0
30/01:30am 15.4 2.6 6.3 54 4.4 W 63 74 34 40 1011.6 1011.6 2.0
30/01:00am 15.6 3.3 8.7 63 3.5 W 63 78 34 42 1011.4 1011.4 2.0
30/12:31am 15.2 2.5 9.8 70 2.8 W 67 85 36 46 1011.2 1011.2 2.0
30/12:30am 16.0 3.5 9.2 64 3.5 W 65 78 35 42 1011.4 1011.4 2.0
30/12:00am 15.9 2.8 8.4 61 3.8 W 67 80 36 43 1010.9 1010.9 2.0
 
Date/Time
WST
Temp
°C
App
Temp
°C
Dew
Point
°C
Rel
Hum
%
Delta-T
°C
Wind Press
QNH
hPa
Press
MSL
hPa
Rain since
9am
mm
Dir  Spd
km/h
Gust
km/h
Spd
kts
Gust
kts
29/11:30pm 15.7 2.4 9.1 65 3.4 W 69 82 37 44 1010.9 1010.9 2.0
29/11:10pm 15.4 2.9 10.7 73 2.5 W 67 91 36 49 1010.6 1010.6 2.0
29/11:00pm 15.9 3.1 10.8 71 2.7 W 69 83 37 45 1010.7 1010.7 2.0
29/10:30pm 16.5 1.7 5.2 47 5.4 W 72 91 39 49 1009.8 1009.8 2.0
29/10:18pm 16.5 3.6 7.8 56 4.4 WNW 65 83 35 45 1009.8 1009.8 2.0
29/10:00pm 16.5 2.9 8.5 59 4.1 W 70 82 38 44 1009.7 1009.7 2.0
29/09:30pm 16.6 3.3 9.7 63 3.6 W 70 87 38 47 1009.1 1009.1 2.0
29/09:00pm 16.8 3.2 10.0 64 3.6 WNW 72 85 39 46 1008.6 1008.6 2.0
29/08:31pm 17.0 4.6 10.9 67 3.3 W 67 85 36 46 1008.2 1008.2 2.0
29/08:30pm 17.0 4.2 10.9 67 3.3 WNW 69 85 37 46 1008.0 1008.0 2.0
29/08:20pm 16.9 4.5 12.2 74 2.6 WNW 69 87 37 47 1007.9 1007.9 2.0
29/08:00pm 16.8 4.2 12.1 74 2.6 WNW 70 85 38 46 1007.1 1007.1 2.0
29/07:30pm 15.1 1.4 12.4 84 1.5 WNW 76 95 41 51 1006.6 1006.6 2.0
29/07:12pm 13.6 0.7 13.6 100 0.0 NW 74 130 40 70 1006.2 1006.2 1.6
29/07:11pm 18.1 5.7 14.1 77 2.3 NW 72 109 39 59 1005.8 1005.8 0.2
29/07:09pm 18.1 6.0 13.3 73 2.7 NW 69 87 37 47 1005.4 1005.4 0.2
29/07:00pm 17.9 5.9 13.5 75 2.5 NW 69 83 37 45 1005.7 1005.7 0.2
29/06:30pm 18.0 5.4 13.4 74 2.6 NW 72 93 39 50 1005.6 1005.6 0.2
29/06:00pm 18.1 5.4 13.1 72 2.8 NW 72 91 39 49 1005.3 1005.3 0.2
29/05:53pm 18.1 5.6 12.6 70 3.1 NW 70 91 38 49 1005.1 1005.1 0.2
29/05:30pm 18.2 6.2 13.5 74 2.7 NW 69 85 37 46 1005.4 1005.4 0.2
29/05:17pm 18.2 6.2 13.5 74 2.7 NW 69 87 37 47 1005.3 1005.3 0.2
29/05:00pm 18.4 6.3 13.1 71 3.0 NW 69 82 37 44 1005.2 1005.2 0.2
29/04:30pm 18.4 6.6 13.1 71 3.0 NW 67 83 36 45 1004.8 1004.8 0.2
29/04:04pm 18.3 6.4 13.8 75 2.6 NW 69 87 37 47 1004.7 1004.7 0.2
29/04:00pm 18.5 5.8 13.2 71 3.0 NW 72 87 39 47 1004.6 1004.6 0.2
29/03:38pm 18.7 5.8 12.4 67 3.5 NW 72 95 39 51 1004.3 1004.3 0.2
29/03:30pm 18.8 6.1 13.0 69 3.3 NW 72 83 39 45 1004.4 1004.4 0.2
29/03:00pm 18.9 4.4 12.1 64 3.8 NW 80 95 43 51 1003.7 1003.7 0.2
29/02:34pm 19.1 6.3 12.7 66 3.6 NW 72 93 39 50 1003.3 1003.3 0.2
29/02:30pm 19.1 6.3 12.7 66 3.6 NW 72 87 39 47 1003.5 1003.5 0.2
29/02:21pm 19.2 7.0 14.6 74 2.7 NW 72 91 39 49 1003.5 1003.5 0.2
29/02:00pm 19.2 5.9 13.6 70 3.2 NW 76 93 41 50 1003.4 1003.4 0.2
29/01:31pm 19.9 10.0 15.3 75 2.7 NNW 61 80 33 43 1003.6 1003.6 0.2
29/01:30pm 20.0 10.2 15.5 75 2.7 NNW 61 78 33 42 1003.6 1003.6 0.2
29/01:00pm 19.9 11.0 15.3 75 2.7 N 56 76 30 41 1004.3 1004.3 0.2
29/12:53pm 19.4 11.5 15.0 75 2.6 N 50 76 27 41 1004.6 1004.6 0.2
29/12:52pm 19.4 11.5 14.8 75 2.7 N 50 76 27 41 1004.6 1004.6 0.2
29/12:30pm 18.2 12.4 14.0 76 2.4 N 37 59 20 32 1005.4 1005.4 0.2
29/12:00pm 17.5 10.7 13.2 76 2.4 N 41 61 22 33 1006.4 1006.4 0.2
29/11:30am 16.8 11.7 13.8 82 1.7 N 33 56 18 30 1007.9 1007.9 0.2
29/11:06am 15.9 11.6 14.3 90 0.9 N 30 48 16 26 1008.8 1008.8 0.2
29/11:00am 15.6 10.6 14.0 90 0.9 N 33 44 18 24 1009.1 1009.1 0.2
29/10:30am 15.3 11.7 13.1 87 1.2 N 24 33 13 18 1009.7 1009.7 0.2
29/10:12am 15.0 10.2 11.5 79 1.9 NNE 28 46 15 25 1009.9 1009.9 0.0
29/10:00am 15.3 10.0 11.4 77 2.1 NNE 30 44 16 24 1009.6 1009.6 0.0
29/09:30am 14.5 9.9 11.1 80 1.8 NNE 26 35 14 19 1010.7 1010.7 0.0
29/09:00am 13.3 8.1 10.2 81 1.6 NNE 28 41 15 22 1011.2 1011.2 1.2
29/08:30am 13.3 7.3 10.2 81 1.6 NNE 32 43 17 23 1011.9 1011.9 1.2
29/08:00am 13.3 8.0 9.8 79 1.8 NNE 28 41 15 22 1012.0 1012.0 1.2
29/07:30am 13.4 7.2 9.9 79 1.8 NNE 33 44 18 24 1012.2 1012.2 1.2
29/07:00am 13.0 8.3 10.5 85 1.3 NNE 26 35 14 19 1012.6 1012.6 1.2
29/06:30am 12.6 8.3 10.7 88 1.0 NNE 24 33 13 18 1013.0 1013.0 1.2
29/06:00am 12.6 9.1 10.9 89 0.9 NNE 20 28 11 15 1013.6 1013.6 1.2
29/05:30am 12.1 8.6 10.9 92 0.6 NNE 20 28 11 15 1014.0 1014.0 1.2
29/05:00am 12.6 8.5 11.3 92 0.7 NE 24 32 13 17 1014.2 1014.2 1.2
29/04:30am 13.1 8.2 11.4 89 0.9 NNE 28 35 15 19 1014.9 1014.9 1.2
29/04:00am 13.4 9.3 11.5 88 1.0 NNE 24 30 13 16 1015.3 1015.3 1.2
29/03:30am 13.6 10.0 11.7 88 1.0 NNE 22 28 12 15 1015.9 1015.9 1.2
29/03:00am 13.6 10.0 11.7 88 1.0 NNE 22 28 12 15 1016.5 1016.5 1.2
29/02:30am 13.4 9.3 11.5 88 1.0 NNE 24 32 13 17 1017.0 1017.0 1.2
29/02:00am 13.6 9.5 11.5 87 1.1 NNE 24 30 13 16 1017.0 1017.0 1.2
29/01:30am 13.5 9.4 11.6 88 1.0 NNE 24 28 13 15 1017.1 1017.1 1.2
29/01:00am 13.7 10.1 11.8 88 1.0 NNE 22 26 12 14 1017.7 1017.7 1.2
29/12:30am 13.6 10.5 11.7 88 1.0 NNE 19 22 10 12 1018.0 1018.0 1.2
29/12:00am 13.6 10.5 11.7 88 1.0 NE 19 22 10 12 1018.3 1018.3 1.2
 
Date/Time
WST
Temp
°C
App
Temp
°C
Dew
Point
°C
Rel
Hum
%
Delta-T
°C
Wind Press
QNH
hPa
Press
MSL
hPa
Rain since
9am
mm
Dir  Spd
km/h
Gust
km/h
Spd
kts
Gust
kts
28/11:30pm 13.4 10.8 11.9 91 0.8 NE 17 22 9 12 1018.7 1018.7 1.2
28/11:00pm 13.4 10.8 11.9 91 0.8 NE 17 20 9 11 1019.2 1019.2 1.2
28/10:30pm 13.4 10.8 11.9 91 0.8 NE 17 20 9 11 1019.5 1019.5 1.2
28/10:00pm 13.4 12.0 12.1 92 0.7 NE 11 17 6 9 1019.9 1019.9 1.2
28/09:30pm 13.4 10.8 12.1 92 0.7 NE 17 20 9 11 1020.0 1020.0 1.2
28/09:00pm 13.5 11.7 12.2 92 0.7 NE 13 17 7 9 1020.3 1020.3 1.2
28/08:30pm 13.7 11.6 12.4 92 0.7 NE 15 19 8 10 1020.5 1020.5 1.2
28/08:00pm 14.1 12.2 13.0 93 0.6 NE 15 19 8 10 1020.4 1020.4 1.2
28/07:30pm 14.4 12.8 12.8 90 0.9 ENE 13 17 7 9 1020.3 1020.3 1.2
28/07:00pm 15.2 12.4 13.2 88 1.1 E 20 24 11 13 1020.2 1020.2 1.2
28/06:30pm 14.8 13.3 13.0 89 1.0 NE 13 15 7 8 1020.2 1020.2 1.2
28/06:00pm 15.0 13.8 12.8 87 1.2 ENE 11 13 6 7 1020.1 1020.1 1.2
28/05:30pm 15.4 13.9 13.0 85 1.3 ENE 13 15 7 8 1019.9 1019.9 1.2
28/05:00pm 15.6 15.4 12.9 84 1.5 ENE 6 9 3 5 1020.0 1020.0 1.2
28/04:30pm 15.9 15.6 12.6 81 1.8 E 6 9 3 5 1020.0 1020.0 1.2
28/04:00pm 16.3 15.7 11.7 74 2.5 S 6 7 3 4 1020.0 1020.0 1.2
28/03:30pm 16.1 15.2 11.2 72 2.6 SSE 7 9 4 5 1019.9 1019.9 1.2

Other Formats:

Comma delimited format used in spreadsheet applications
http://www.bom.gov.au/fwo/IDW60801/IDW60801.94601.axf

JavaScript Object Notation format (JSON) in row-major order
http://www.bom.gov.au/fwo/IDW60801/IDW60801.94601.json